Time;durP1;ratioP1;P1;durP2;ratioP2;P2;SDS_P1;SDS_P2;PMS_P1;PMS_P2;Temp;Humidity;BMP_temperature;BMP_pressure;BME280_temperature;BME280_humidity;BME280_pressure;Samples;Min_cycle;Max_cycle;Signal;HPM_P1;HPM_P2
2023/03/13 00:00:18;;;;;;;13.02;4.13;;;5.60;99.90;;;4.49;100.00;96897.94;4909580;29;20420;-74
2023/03/13 00:02:44;;;;;;;18.60;4.43;;;5.60;99.90;;;4.51;100.00;96901.16;4909678;29;20468;-75
2023/03/13 00:05:10;;;;;;;16.65;4.22;;;5.70;99.90;;;4.55;100.00;96889.19;4911027;29;20440;-75
2023/03/13 00:07:36;;;;;;;15.27;4.45;;;5.70;99.90;;;4.59;100.00;96896.34;4909317;29;20877;-75
2023/03/13 00:10:03;;;;;;;14.40;4.20;;;5.70;99.90;;;4.62;100.00;96892.50;4908986;29;20444;-75
2023/03/13 00:12:29;;;;;;;16.80;5.35;;;5.70;99.90;;;4.63;100.00;96894.09;4907769;29;20415;-75
2023/03/13 00:14:56;;;;;;;20.85;4.72;;;5.80;99.90;;;4.63;100.00;96886.25;4906033;29;20522;-75
2023/03/13 00:17:22;;;;;;;11.30;4.20;;;5.80;99.90;;;4.66;100.00;96885.81;4921446;29;20422;-75
2023/03/13 00:19:49;;;;;;;13.15;4.00;;;5.80;99.90;;;4.67;100.00;96890.78;4907764;29;20434;-75
2023/03/13 00:22:15;;;;;;;16.70;5.03;;;5.80;99.90;;;4.70;100.00;96892.19;4904722;29;20553;-75
2023/03/13 00:24:41;;;;;;;12.52;4.10;;;5.90;99.90;;;4.73;100.00;96888.31;4906640;29;20431;-75
2023/03/13 00:27:07;;;;;;;21.63;4.82;;;5.90;99.90;;;4.72;100.00;96884.91;4906214;29;20418;-75
2023/03/13 00:29:33;;;;;;;17.50;4.43;;;5.90;99.90;;;4.73;100.00;96890.94;4907799;29;20414;-75
2023/03/13 00:32:01;;;;;;;17.05;4.28;;;5.80;99.90;;;4.74;100.00;96880.19;4906253;29;20800;-75
2023/03/13 00:34:27;;;;;;;26.63;4.60;;;5.90;99.90;;;4.76;100.00;96877.34;4920625;29;20837;-75
2023/03/13 00:36:54;;;;;;;14.27;4.20;;;5.90;99.90;;;4.78;100.00;96870.88;4907616;29;20414;-75
2023/03/13 00:39:20;;;;;;;14.70;4.25;;;5.90;99.90;;;4.85;100.00;96871.56;4906354;29;20411;-75
2023/03/13 00:41:47;;;;;;;15.35;4.20;;;5.90;99.90;;;4.88;100.00;96870.31;4905927;29;20413;-74
2023/03/13 00:44:13;;;;;;;14.05;4.20;;;6.00;99.90;;;4.90;100.00;96865.63;4907517;29;20902;-75
2023/03/13 00:46:38;;;;;;;16.65;4.13;;;6.00;99.90;;;4.93;100.00;96863.34;4904860;29;20825;-74
2023/03/13 00:49:06;;;;;;;23.25;4.88;;;6.10;99.90;;;4.93;100.00;96870.44;4906249;29;20421;-74
2023/03/13 00:51:32;;;;;;;16.95;4.13;;;6.10;99.90;;;4.94;100.00;96857.09;4907198;29;20417;-75
2023/03/13 00:53:59;;;;;;;26.50;5.27;;;6.10;99.90;;;4.96;100.00;96862.13;4905896;29;20430;-75
2023/03/13 00:56:26;;;;;;;23.65;5.60;;;6.10;99.90;;;4.98;100.00;96863.47;4906059;29;20417;-75
2023/03/13 00:58:52;;;;;;;34.08;5.90;;;6.10;99.90;;;5.09;100.00;96853.22;4907238;29;20425;-75
2023/03/13 01:01:21;;;;;;;35.70;6.60;;;6.20;99.90;;;5.21;100.00;96852.16;4905636;29;20430;-75
2023/03/13 01:03:50;;;;;;;24.23;4.70;;;6.30;99.90;;;5.33;100.00;96845.09;4905481;29;20512;-76
2023/03/13 01:06:20;;;;;;;18.45;4.32;;;6.40;99.90;;;5.43;100.00;96834.00;4904417;29;20427;-75
2023/03/13 01:08:47;;;;;;;19.52;4.45;;;6.50;99.90;;;5.47;100.00;96829.88;4896695;29;20419;-76
2023/03/13 01:11:15;;;;;;;20.52;4.72;;;6.60;99.90;;;5.44;100.00;96818.00;4898243;29;20462;-75
2023/03/13 01:13:42;;;;;;;18.42;4.60;;;6.60;99.90;;;5.49;100.00;96827.03;4907005;28;20422;-75
2023/03/13 01:16:11;;;;;;;16.73;4.32;;;6.60;99.90;;;5.58;100.00;96817.75;4908325;29;20866;-75
2023/03/13 01:18:40;;;;;;;20.42;5.10;;;6.60;99.90;;;5.58;100.00;96810.66;4905103;29;20409;-75
2023/03/13 01:21:06;;;;;;;25.77;6.28;;;6.70;99.90;;;5.59;100.00;96809.63;4906069;28;20945;-75
2023/03/13 01:23:34;;;;;;;18.67;4.68;;;6.70;99.90;;;5.60;100.00;96799.94;4905970;29;20430;-75
2023/03/13 01:26:00;;;;;;;21.33;5.22;;;6.70;99.90;;;5.66;100.00;96796.38;4904854;29;20430;-76
2023/03/13 01:28:26;;;;;;;19.42;5.57;;;6.70;99.90;;;5.69;100.00;96794.09;4906366;29;20776;-76
2023/03/13 01:30:52;;;;;;;18.63;4.93;;;6.80;99.90;;;5.75;100.00;96795.78;4906167;29;20505;-75
2023/03/13 01:33:18;;;;;;;27.73;6.15;;;6.80;99.90;;;5.70;100.00;96782.56;4904525;29;20998;-75
2023/03/13 01:35:44;;;;;;;16.95;4.45;;;6.80;99.90;;;5.78;100.00;96787.44;4906501;29;20488;-75
2023/03/13 01:38:10;;;;;;;17.73;4.88;;;6.80;99.90;;;5.84;100.00;96778.63;4905679;29;20407;-75
2023/03/13 01:40:44;;;;;;;15.20;4.78;;;6.90;99.90;;;5.87;100.00;96771.28;4904912;29;20524;-75
2023/03/13 01:43:19;;;;;;;18.15;4.45;;;6.90;99.90;;;5.86;100.00;96764.47;4905334;29;20466;-75
2023/03/13 01:46:01;;;;;;;11.98;3.80;;;6.90;99.90;;;5.84;100.00;96759.44;4897013;29;20843;-75
2023/03/13 01:48:36;;;;;;;15.32;4.13;;;6.90;99.90;;;5.80;100.00;96760.91;4901318;29;20409;-75
2023/03/13 01:51:07;;;;;;;22.30;5.10;;;6.90;99.90;;;5.73;100.00;96752.38;4906481;29;20409;-75
2023/03/13 01:53:35;;;;;;;14.75;4.53;;;6.80;99.90;;;5.72;100.00;96742.91;4905562;29;20440;-75
2023/03/13 01:56:08;;;;;;;12.50;3.95;;;6.80;99.90;;;5.73;100.00;96741.88;4904357;29;20778;-75
2023/03/13 01:58:35;;;;;;;11.18;3.95;;;6.80;99.90;;;5.72;100.00;96737.66;4904926;29;20415;-75
2023/03/13 02:01:02;;;;;;;9.32;3.40;;;6.80;99.90;;;5.71;100.00;96729.00;4906189;29;20412;-75
2023/03/13 02:03:29;;;;;;;16.95;4.47;;;6.80;99.90;;;5.66;100.00;96723.66;4904908;29;20419;-75
2023/03/13 02:05:58;;;;;;;14.02;4.10;;;6.80;99.90;;;5.69;100.00;96720.56;4904775;29;21047;-75
2023/03/13 02:08:30;;;;;;;16.65;4.00;;;6.80;99.90;;;5.70;100.00;96721.38;4906202;29;20413;-75
2023/03/13 02:11:09;;;;;;;13.60;4.25;;;6.80;99.90;;;5.68;100.00;96718.19;4895313;29;20446;-75
2023/03/13 02:13:34;;;;;;;15.85;4.07;;;6.80;99.90;;;5.63;100.00;96718.09;4907312;29;20500;-75
2023/03/13 02:16:01;;;;;;;27.70;5.00;;;6.70;99.90;;;5.59;100.00;96709.09;4906566;29;20469;-75
2023/03/13 02:18:28;;;;;;;17.10;4.43;;;6.70;99.90;;;5.61;100.00;96714.91;4906462;29;20447;-75
2023/03/13 02:21:04;;;;;;;14.18;3.80;;;6.70;99.90;;;5.62;100.00;96713.88;4903950;29;20432;-75
2023/03/13 02:23:38;;;;;;;16.15;4.18;;;6.70;99.90;;;5.65;100.00;96713.38;4904397;29;20417;-75
2023/03/13 02:26:05;;;;;;;16.50;4.28;;;6.70;99.90;;;5.65;100.00;96708.13;4900569;29;20512;-74
2023/03/13 02:28:34;;;;;;;13.25;3.67;;;6.70;99.90;;;5.65;100.00;96708.13;4905267;29;20434;-75
2023/03/13 02:31:01;;;;;;;13.75;3.85;;;6.70;99.90;;;5.64;100.00;96709.19;4895379;29;20415;-75
2023/03/13 02:33:30;;;;;;;14.23;4.43;;;6.70;99.90;;;5.67;100.00;96704.25;4903789;29;20415;-75
2023/03/13 02:35:57;;;;;;;14.13;3.78;;;6.70;99.90;;;5.69;100.00;96698.75;4903716;29;20411;-75
2023/03/13 02:38:26;;;;;;;18.25;4.15;;;6.80;99.90;;;5.70;100.00;96695.13;4905206;29;20413;-74
2023/03/13 02:40:54;;;;;;;11.57;3.40;;;6.70;99.90;;;5.74;100.00;96688.34;4905407;29;20426;-74
2023/03/13 02:43:29;;;;;;;12.20;3.38;;;6.80;99.90;;;5.73;100.00;96681.50;4895139;29;20411;-75
2023/03/13 02:46:05;;;;;;;8.23;2.90;;;6.80;99.90;;;5.77;100.00;96670.28;4903061;29;20963;-75
2023/03/13 02:48:34;;;;;;;19.27;3.75;;;6.80;99.90;;;5.79;100.00;96665.56;4904107;29;20420;-75
2023/03/13 02:51:04;;;;;;;16.20;3.13;;;6.90;99.90;;;5.86;100.00;96665.44;4905390;29;20805;-75
2023/03/13 02:53:31;;;;;;;14.88;4.13;;;6.90;99.90;;;5.85;100.00;96658.59;4904813;29;20411;-75
2023/03/13 02:55:57;;;;;;;13.80;2.90;;;6.90;99.90;;;5.88;100.00;96654.72;4903553;29;20411;-75
2023/03/13 02:58:24;;;;;;;14.98;3.17;;;7.00;99.90;;;5.93;100.00;96649.56;4904985;29;20448;-75
2023/03/13 03:00:51;;;;;;;14.57;2.97;;;7.00;99.90;;;5.93;100.00;96645.09;4904899;29;20739;-75
2023/03/13 03:03:17;;;;;;;16.67;3.40;;;7.00;99.90;;;5.97;100.00;96640.94;4903226;29;20512;-75
2023/03/13 03:05:43;;;;;;;10.88;3.10;;;7.00;99.90;;;6.02;100.00;96634.97;4904905;29;20960;-75
2023/03/13 03:08:09;;;;;;;10.30;2.80;;;7.10;99.90;;;6.02;100.00;96633.13;4904567;29;20415;-74
2023/03/13 03:10:35;;;;;;;9.32;3.30;;;7.00;99.90;;;6.07;100.00;96624.56;4903454;29;20421;-75
2023/03/13 03:13:01;;;;;;;13.48;2.88;;;7.10;99.90;;;6.08;100.00;96623.53;4895540;29;20410;-74
2023/03/13 03:15:29;;;;;;;12.32;2.50;;;7.10;99.90;;;6.14;100.00;96614.66;4904256;29;20420;-75
2023/03/13 03:17:54;;;;;;;10.52;2.42;;;7.20;99.90;;;6.18;100.00;96610.50;4905115;29;20419;-76
2023/03/13 03:20:20;;;;;;;6.38;2.38;;;7.20;99.90;;;6.19;100.00;96606.84;4895606;29;20407;-75
2023/03/13 03:22:46;;;;;;;6.85;2.42;;;7.20;99.90;;;6.17;100.00;96601.03;4904356;29;20978;-75
2023/03/13 03:25:12;;;;;;;10.17;2.70;;;7.20;99.90;;;6.19;100.00;96609.47;4904962;29;20431;-75
2023/03/13 03:27:38;;;;;;;13.30;3.28;;;7.20;99.90;;;6.18;100.00;96610.50;4920110;23;20402;-77
2023/03/13 03:30:06;;;;;;;13.95;2.67;;;7.20;99.90;;;6.27;100.00;96603.00;4921982;29;20427;-77
2023/03/13 03:32:33;;;;;;;8.25;2.35;;;7.30;99.90;;;6.25;100.00;96608.50;4921382;29;20537;-78
2023/03/13 03:34:59;;;;;;;10.68;2.53;;;7.30;99.90;;;6.30;100.00;96605.16;4922267;29;20404;-79
2023/03/13 03:37:25;;;;;;;8.68;2.28;;;7.30;99.90;;;6.34;100.00;96599.16;4921838;29;20419;-78
2023/03/13 03:39:51;;;;;;;6.75;2.65;;;7.40;99.90;;;6.40;100.00;96598.19;4903843;29;20529;-78
2023/03/13 03:42:17;;;;;;;6.68;2.28;;;7.40;99.90;;;6.44;100.00;96601.13;4897791;29;20448;-79
2023/03/13 03:44:43;;;;;;;7.28;2.20;;;7.40;99.90;;;6.43;100.00;96594.28;4903752;29;20492;-79
2023/03/13 03:47:09;;;;;;;5.47;2.20;;;7.50;99.90;;;6.50;100.00;96600.97;4904376;29;20900;-79
2023/03/13 03:49:36;;;;;;;5.40;2.10;;;7.50;99.90;;;6.51;100.00;96596.50;4906941;29;20411;-79
2023/03/13 03:52:02;;;;;;;7.38;2.03;;;7.50;99.90;;;6.55;100.00;96595.75;4902549;29;20418;-79
2023/03/13 03:54:28;;;;;;;8.25;2.40;;;7.60;99.90;;;6.58;100.00;96599.75;4907640;29;20416;-79
2023/03/13 03:56:54;;;;;;;7.28;2.05;;;7.60;99.90;;;6.61;100.00;96602.66;4898241;29;20510;-79
2023/03/13 03:59:20;;;;;;;7.43;2.08;;;7.60;99.90;;;6.63;100.00;96604.25;4908450;29;20866;-79
2023/03/13 04:01:46;;;;;;;7.97;2.30;;;7.60;99.90;;;6.68;100.00;96604.34;4898742;29;20527;-79
2023/03/13 04:04:12;;;;;;;6.95;2.20;;;7.70;99.90;;;6.70;100.00;96612.75;4903917;29;20415;-79
2023/03/13 04:06:39;;;;;;;6.05;2.13;;;7.70;99.90;;;6.79;100.00;96591.03;4908818;29;20409;-79
2023/03/13 04:09:05;;;;;;;4.63;1.70;;;7.80;99.90;;;7.09;100.00;96587.16;4903961;29;20976;-79
2023/03/13 04:11:31;;;;;;;2.50;1.63;;;8.10;99.90;;;7.26;100.00;96585.22;4907546;29;20415;-79
2023/03/13 04:13:57;;;;;;;4.07;1.70;;;8.20;99.90;;;7.46;100.00;96587.22;4906363;29;20411;-79
2023/03/13 04:16:23;;;;;;;5.47;1.70;;;8.40;99.90;;;7.63;100.00;96585.28;4907964;29;20413;-80
2023/03/13 04:18:48;;;;;;;6.33;1.60;;;8.60;99.90;;;7.92;100.00;96591.00;4897723;29;20419;-79
2023/03/13 04:21:14;;;;;;;5.50;1.70;;;8.80;99.90;;;8.10;100.00;96575.59;4907996;29;20825;-79
2023/03/13 04:23:42;;;;;;;3.92;1.60;;;9.00;99.90;;;8.14;100.00;96571.38;4905594;29;20430;-79
2023/03/13 04:26:07;;;;;;;3.15;1.55;;;9.10;99.90;;;8.28;100.00;96569.09;4907103;29;20424;-79
2023/03/13 04:28:33;;;;;;;1.70;1.40;;;9.30;99.90;;;8.40;100.00;96569.72;4897400;29;20504;-80
2023/03/13 04:31:00;;;;;;;2.92;1.40;;;9.30;99.90;;;8.49;100.00;96570.03;4906644;29;20465;-79
2023/03/13 04:33:26;;;;;;;2.70;1.50;;;9.50;99.90;;;8.69;100.00;96553.47;4897330;29;20773;-79
2023/03/13 04:35:52;;;;;;;2.42;1.30;;;9.60;99.90;;;8.68;100.00;96559.81;4907565;29;20501;-79
2023/03/13 04:38:18;;;;;;;5.63;1.92;;;9.60;99.90;;;8.64;100.00;96551.63;4905842;29;20510;-79
2023/03/13 04:40:45;;;;;;;4.35;1.42;;;9.60;99.90;;;8.80;100.00;96550.59;4907468;29;20410;-79
2023/03/13 04:43:11;;;;;;;3.30;1.60;;;9.70;99.90;;;8.84;100.00;96549.03;4897339;29;20415;-79
2023/03/13 04:45:37;;;;;;;3.50;1.50;;;9.70;99.90;;;8.87;100.00;96548.50;4907665;29;20505;-79
2023/03/13 04:48:03;;;;;;;3.03;1.50;;;9.70;99.90;;;8.93;100.00;96547.47;4897294;29;20814;-80
2023/03/13 04:50:29;;;;;;;3.20;1.42;;;9.90;99.90;;;9.00;100.00;96547.22;4897372;29;20815;-79
2023/03/13 04:52:55;;;;;;;4.28;1.50;;;9.90;99.90;;;9.12;100.00;96537.22;4902209;29;20452;-79
2023/03/13 04:55:21;;;;;;;4.00;1.50;;;10.00;99.90;;;9.00;100.00;96547.22;4900667;29;20426;-80
2023/03/13 04:57:48;;;;;;;2.88;1.38;;;9.90;99.90;;;9.05;100.00;96547.22;4904176;29;20413;-78
2023/03/13 05:00:15;;;;;;;1.52;1.35;;;9.90;99.90;;;8.96;100.00;96548.00;4896301;29;20411;-78
2023/03/13 05:02:41;;;;;;;2.30;1.25;;;9.90;99.90;;;8.87;100.00;96545.88;4904994;29;20512;-79
2023/03/13 05:05:08;;;;;;;2.60;1.40;;;9.80;99.90;;;8.98;100.00;96543.25;4907567;29;20484;-80
2023/03/13 05:07:33;;;;;;;1.50;1.33;;;9.90;99.90;;;8.91;100.00;96546.94;4896917;29;20503;-78
2023/03/13 05:09:59;;;;;;;4.22;1.40;;;9.90;99.90;;;8.95;100.00;96541.16;4904465;29;20498;-80
2023/03/13 05:12:25;;;;;;;4.60;1.40;;;9.90;99.90;;;9.01;100.00;96525.06;4904238;29;20968;-79
2023/03/13 05:14:52;;;;;;;3.47;1.38;;;10.00;99.90;;;9.06;100.00;96532.19;4902137;29;20464;-79
2023/03/13 05:17:18;;;;;;;2.85;1.60;;;10.00;99.90;;;9.04;100.00;96526.38;4902337;29;20434;-78
2023/03/13 05:19:44;;;;;;;1.50;1.40;;;10.10;99.90;;;9.11;100.00;96529.53;4908116;29;20449;-84
2023/03/13 05:22:10;;;;;;;3.13;1.40;;;10.00;99.90;;;9.08;100.00;96538.81;4910025;29;20415;-81
2023/03/13 05:24:36;;;;;;;3.80;1.30;;;10.00;99.90;;;9.14;100.00;96545.66;4911359;29;20433;-79
2023/03/13 05:27:02;;;;;;;3.38;1.50;;;10.10;99.90;;;9.14;100.00;96547.50;4900227;29;20446;-79
2023/03/13 05:29:28;;;;;;;2.55;1.40;;;10.10;99.90;;;9.21;100.00;96556.75;4905500;29;20476;-79
2023/03/13 05:31:55;;;;;;;2.10;1.40;;;10.10;99.90;;;9.37;100.00;96548.84;4903417;29;20425;-80
2023/03/13 05:34:21;;;;;;;3.42;1.35;;;10.30;99.90;;;9.44;100.00;96542.25;4904700;29;20433;-79
2023/03/13 05:36:47;;;;;;;1.85;1.25;;;10.30;99.90;;;9.51;100.00;96540.16;4906049;29;20417;-79
2023/03/13 05:39:13;;;;;;;1.85;1.40;;;10.30;99.90;;;9.61;100.00;96540.16;4906524;29;20495;-78
2023/03/13 05:41:39;;;;;;;2.25;1.25;;;10.30;99.90;;;9.43;100.00;96531.94;4899887;29;20518;-76
2023/03/13 05:44:05;;;;;;;2.72;1.48;;;10.30;99.90;;;9.36;100.00;96521.66;4898059;29;20941;-75
2023/03/13 05:46:32;;;;;;;3.38;1.42;;;10.40;99.90;;;9.52;100.00;96503.94;4897877;29;21012;-75
2023/03/13 05:48:59;;;;;;;3.50;1.40;;;10.40;99.90;;;9.56;100.00;96521.63;4913576;29;20803;-75
2023/03/13 05:51:25;;;;;;;2.28;1.20;;;10.40;99.90;;;9.46;100.00;96519.03;4901268;29;20785;-75
2023/03/13 05:53:51;;;;;;;3.43;1.30;;;10.30;99.90;;;9.58;100.00;96516.09;4901547;29;20419;-75
2023/03/13 05:56:17;;;;;;;3.40;1.20;;;10.30;99.90;;;9.41;100.00;96508.44;4903130;29;20410;-75
2023/03/13 05:58:43;;;;;;;4.10;1.42;;;10.30;99.90;;;9.37;100.00;96523.25;4895032;29;20419;-75
2023/03/13 06:01:12;;;;;;;1.30;1.20;;;10.20;99.90;;;9.37;100.00;96517.97;4900718;29;20791;-75
2023/03/13 06:03:38;;;;;;;2.00;1.20;;;10.20;99.90;;;9.40;100.00;96511.38;4895237;29;20777;-75
2023/03/13 06:06:06;;;;;;;2.30;1.30;;;10.20;99.90;;;9.27;100.00;96526.66;4895889;29;20896;-75
2023/03/13 06:08:32;;;;;;;3.13;1.23;;;10.20;99.90;;;9.32;100.00;96520.59;4894143;29;20431;-74
2023/03/13 06:10:59;;;;;;;2.10;1.17;;;10.20;99.90;;;9.28;100.00;96524.81;4916078;29;20542;-75
2023/03/13 06:13:25;;;;;;;1.48;1.13;;;10.20;99.90;;;9.38;100.00;96527.47;4897606;29;20407;-74
2023/03/13 06:15:52;;;;;;;2.38;1.10;;;10.30;99.90;;;9.38;100.00;96527.47;4914571;29;20896;-74
2023/03/13 06:18:18;;;;;;;3.00;1.33;;;10.30;99.90;;;9.42;100.00;96530.34;4913689;29;20405;-75
2023/03/13 06:20:44;;;;;;;1.33;1.17;;;10.30;99.90;;;9.56;100.00;96536.69;4913365;29;20413;-75
2023/03/13 06:23:12;;;;;;;1.75;1.35;;;10.40;99.90;;;9.53;100.00;96537.25;4913924;29;20416;-75
2023/03/13 06:25:37;;;;;;;2.20;1.20;;;10.40;99.90;;;9.59;100.00;96542.25;4913932;29;20437;-75
2023/03/13 06:28:03;;;;;;;2.10;1.20;;;10.50;99.90;;;9.48;100.00;96538.03;4914487;29;20428;-75
2023/03/13 06:30:29;;;;;;;2.22;1.27;;;10.40;99.90;;;9.62;100.00;96547.00;4914530;29;20405;-75
2023/03/13 06:32:56;;;;;;;1.98;1.25;;;10.50;99.90;;;9.59;100.00;96536.19;4914514;29;20421;-75
2023/03/13 06:35:24;;;;;;;2.88;1.08;;;10.50;99.90;;;9.56;100.00;96536.69;4914491;29;20405;-75
2023/03/13 06:37:50;;;;;;;1.55;1.17;;;10.50;99.90;;;9.68;100.00;96529.31;4914563;29;20468;-74
2023/03/13 06:40:17;;;;;;;2.00;1.20;;;10.50;99.90;;;9.59;100.00;96517.69;4914661;29;20416;-75
2023/03/13 06:42:43;;;;;;;1.38;1.10;;;10.50;99.90;;;9.67;100.00;96531.16;4914458;29;20405;-75
2023/03/13 06:45:10;;;;;;;1.80;1.20;;;10.50;99.90;;;9.70;100.00;96521.88;4914417;29;20546;-75
2023/03/13 06:47:36;;;;;;;2.33;1.40;;;10.60;99.90;;;9.87;100.00;96527.69;4914384;29;20511;-75
2023/03/13 06:50:02;;;;;;;2.23;1.37;;;10.70;99.90;;;9.90;100.00;96527.16;4914564;29;20542;-75
2023/03/13 06:52:28;;;;;;;2.20;1.20;;;10.80;99.90;;;9.87;100.00;96525.03;4914206;29;20441;-75
2023/03/13 06:54:54;;;;;;;1.20;1.10;;;10.70;99.90;;;9.92;100.00;96542.75;4914425;29;20435;-75
2023/03/13 06:57:21;;;;;;;2.30;1.10;;;10.70;99.90;;;9.82;100.00;96548.84;4914470;29;20439;-75
2023/03/13 06:59:47;;;;;;;1.85;1.05;;;10.70;99.90;;;10.03;100.00;96552.25;4914307;29;20451;-74
2023/03/13 07:02:14;;;;;;;2.60;1.13;;;10.80;99.90;;;9.84;100.00;96553.88;4912867;29;20504;-75
2023/03/13 07:04:40;;;;;;;1.20;1.10;;;10.80;99.90;;;9.99;100.00;96552.00;4914223;29;20519;-75
2023/03/13 07:07:06;;;;;;;2.03;1.10;;;10.80;99.90;;;9.82;100.00;96550.69;4914394;29;20911;-75
2023/03/13 07:09:32;;;;;;;2.00;1.07;;;10.80;99.90;;;9.92;100.00;96551.47;4914253;29;20428;-75
2023/03/13 07:11:58;;;;;;;2.38;1.23;;;10.80;99.90;;;9.97;100.00;96543.53;4914183;29;20405;-75
2023/03/13 07:14:28;;;;;;;1.25;1.10;;;10.80;99.90;;;9.95;100.00;96540.38;4914241;29;20424;-75
2023/03/13 07:16:54;;;;;;;1.20;1.10;;;10.80;99.90;;;10.07;100.00;96550.66;4914305;29;20705;-74
2023/03/13 07:19:20;;;;;;;3.50;1.20;;;10.90;99.90;;;10.09;100.00;96543.25;4914251;29;20504;-74
2023/03/13 07:21:46;;;;;;;1.15;1.05;;;11.00;99.90;;;10.03;100.00;96549.59;4917762;29;20405;-75
2023/03/13 07:24:12;;;;;;;1.95;1.15;;;10.90;99.90;;;10.10;100.00;96550.13;4918023;29;20504;-75
2023/03/13 07:26:38;;;;;;;1.47;1.07;;;11.00;99.90;;;10.00;100.00;96539.56;4917886;29;20595;-75
2023/03/13 07:29:04;;;;;;;1.17;1.08;;;10.90;99.90;;;10.30;100.00;96544.03;4917666;29;20421;-74
2023/03/13 07:31:32;;;;;;;2.65;1.50;;;11.00;99.90;;;10.23;100.00;96546.13;4917544;29;20445;-75
2023/03/13 07:33:58;;;;;;;1.17;1.05;;;11.10;99.90;;;10.06;100.00;96533.22;4917514;29;20911;-75
2023/03/13 07:36:25;;;;;;;2.83;1.20;;;11.00;99.90;;;10.00;100.00;96528.97;4916457;29;20796;-75
2023/03/13 07:38:51;;;;;;;1.30;1.17;;;10.90;99.90;;;10.01;100.00;96534.00;4917604;29;20413;-75
2023/03/13 07:41:19;;;;;;;1.93;1.20;;;11.00;99.90;;;10.06;100.00;96527.94;4917519;29;20475;-74
2023/03/13 07:43:45;;;;;;;1.90;1.20;;;11.00;99.90;;;10.05;100.00;96532.41;4917337;29;20922;-74
2023/03/13 07:46:13;;;;;;;2.30;1.10;;;10.90;99.90;;;10.21;100.00;96530.56;4917563;29;20508;-74
2023/03/13 07:48:42;;;;;;;2.50;1.20;;;11.00;99.90;;;10.11;100.00;96525.25;4917479;29;20440;-74
2023/03/13 07:51:12;;;;;;;1.20;1.10;;;11.00;99.90;;;10.06;100.00;96522.63;4917386;29;20425;-74
2023/03/13 07:53:38;;;;;;;1.80;1.30;;;10.90;99.90;;;10.12;100.00;96512.84;4917256;29;20915;-75
2023/03/13 07:56:06;;;;;;;3.15;1.50;;;11.00;99.90;;;10.22;100.00;96518.94;4916060;29;20468;-75
2023/03/13 07:58:35;;;;;;;1.75;1.20;;;11.10;99.90;;;10.17;100.00;96502.22;4917240;29;20841;-74
2023/03/13 08:01:08;;;;;;;2.35;1.20;;;11.10;99.90;;;10.21;100.00;96493.53;4917289;29;20405;-75
2023/03/13 08:03:34;;;;;;;1.30;1.10;;;11.10;99.90;;;10.17;100.00;96492.47;4917151;29;20449;-75
2023/03/13 08:06:05;;;;;;;3.67;1.20;;;11.10;99.90;;;10.26;100.00;96490.06;4917264;29;20429;-75
2023/03/13 08:08:30;;;;;;;1.40;1.30;;;11.20;99.90;;;10.32;100.00;96481.03;4917118;29;20542;-75
2023/03/13 08:11:01;;;;;;;1.80;1.30;;;11.20;99.90;;;10.46;100.00;96477.53;4917088;29;20496;-75
2023/03/13 08:13:27;;;;;;;1.10;1.00;;;11.40;99.90;;;10.55;100.00;96458.44;4916926;29;20418;-75
2023/03/13 08:16:03;;;;;;;1.98;1.10;;;11.40;99.90;;;10.67;100.00;96451.00;4917122;29;20406;-75
2023/03/13 08:18:33;;;;;;;3.10;1.30;;;11.50;99.90;;;10.89;100.00;96450.59;4916927;29;20875;-74
2023/03/13 08:21:02;;;;;;;2.95;1.30;;;11.60;99.90;;;10.86;100.00;96444.75;4917025;29;20424;-75
2023/03/13 08:23:28;;;;;;;2.40;1.10;;;11.80;99.90;;;11.01;100.00;96453.66;4916757;29;20502;-74
2023/03/13 08:25:54;;;;;;;1.60;1.10;;;11.90;99.90;;;11.06;100.00;96453.63;4916815;29;20513;-75
2023/03/13 08:28:20;;;;;;;1.80;1.17;;;11.90;99.90;;;11.23;100.00;96454.00;4911292;29;20909;-75
2023/03/13 08:30:46;;;;;;;2.00;1.10;;;12.10;99.90;;;11.35;100.00;96459.72;4895168;29;20425;-75
2023/03/13 08:33:12;;;;;;;3.40;1.20;;;12.20;99.90;;;11.50;100.00;96474.75;4897484;29;21012;-75
2023/03/13 08:35:38;;;;;;;2.47;1.20;;;12.30;99.90;;;11.50;100.00;96470.19;4898000;29;20418;-75
2023/03/13 08:38:05;;;;;;;4.60;1.50;;;12.40;99.90;;;11.47;100.00;96472.63;4901176;29;20525;-75
2023/03/13 08:40:31;;;;;;;1.83;1.23;;;12.30;99.90;;;11.65;100.00;96458.69;4906076;29;20498;-75
2023/03/13 08:42:57;;;;;;;5.72;1.33;;;12.50;99.90;;;11.56;100.00;96465.66;4900250;29;20415;-72
2023/03/13 08:45:23;;;;;;;2.50;1.45;;;12.40;99.90;;;11.67;100.00;96458.38;4902581;29;20552;-73
2023/03/13 08:47:52;;;;;;;1.75;1.63;;;12.50;99.90;;;11.90;100.00;96471.72;4906281;29;20514;-74
2023/03/13 08:50:18;;;;;;;1.73;1.33;;;12.50;99.90;;;11.87;100.00;96452.94;4885284;29;20442;-70
2023/03/13 08:52:44;;;;;;;2.50;1.30;;;12.70;99.90;;;11.72;100.00;96455.72;4894647;29;20866;-74
2023/03/13 08:55:12;;;;;;;2.05;1.20;;;12.60;99.90;;;11.76;100.00;96467.34;4900686;29;20913;-72
2023/03/13 08:57:37;;;;;;;2.17;1.33;;;12.60;99.90;;;11.86;100.00;96467.25;4894800;29;20501;-72
2023/03/13 09:00:09;;;;;;;1.60;1.27;;;12.60;99.90;;;12.01;100.00;96475.06;4895870;29;20518;-73
2023/03/13 09:02:35;;;;;;;3.00;1.73;;;12.70;99.90;;;12.05;100.00;96472.63;4896664;29;20419;-72
2023/03/13 09:05:01;;;;;;;2.10;1.45;;;12.80;99.90;;;12.20;100.00;96467.94;4896109;29;20792;-73
2023/03/13 09:07:27;;;;;;;4.28;1.50;;;13.00;99.90;;;12.14;100.00;96469.06;4900227;29;20401;-73
2023/03/13 09:09:53;;;;;;;2.28;1.55;;;12.90;99.90;;;12.03;100.00;96472.88;4905049;29;20988;-71
2023/03/13 09:12:21;;;;;;;3.20;1.30;;;12.80;99.90;;;11.92;100.00;96474.88;4894130;29;20485;-72
2023/03/13 09:14:47;;;;;;;2.55;1.50;;;12.80;99.90;;;12.10;100.00;96465.41;4896018;29;20427;-72
2023/03/13 09:17:13;;;;;;;2.97;1.38;;;12.90;99.90;;;12.08;100.00;96464.09;4893970;29;20427;-76
2023/03/13 09:19:39;;;;;;;2.55;1.30;;;12.90;99.90;;;12.02;100.00;96458.88;4892807;29;20464;-76
2023/03/13 09:22:05;;;;;;;4.38;1.40;;;12.90;99.90;;;12.08;100.00;96459.59;4890929;29;20433;-77
2023/03/13 09:24:31;;;;;;;2.80;1.42;;;13.00;99.90;;;12.17;100.00;96468.50;4898954;29;20996;-79
2023/03/13 09:26:57;;;;;;;2.03;1.15;;;13.00;99.90;;;12.35;100.00;96459.00;4892956;29;20506;-74
2023/03/13 09:29:24;;;;;;;2.85;1.48;;;13.10;99.90;;;12.33;100.00;96453.97;4927424;23;20844;-72
2023/03/13 09:31:50;;;;;;;1.55;1.15;;;13.20;99.90;;;12.51;100.00;96464.91;4930285;29;20424;-72
2023/03/13 09:34:16;;;;;;;1.88;1.15;;;13.20;99.90;;;12.61;100.00;96473.53;4934464;29;20436;-71
2023/03/13 09:36:41;;;;;;;3.47;1.38;;;13.40;99.90;;;12.65;100.00;96473.72;4926164;29;21029;-73
2023/03/13 09:39:07;;;;;;;2.80;1.30;;;13.50;99.90;;;12.65;100.00;96479.84;4922523;29;20413;-74
2023/03/13 09:41:41;;;;;;;3.47;1.42;;;13.50;99.90;;;12.80;100.00;96458.38;4914416;29;20761;-74
2023/03/13 09:44:14;;;;;;;2.70;1.42;;;13.50;99.90;;;12.63;100.00;96489.19;4920928;29;20412;-76
2023/03/13 09:46:48;;;;;;;2.70;1.30;;;13.50;99.90;;;12.85;100.00;96486.75;4915177;29;20433;-76
2023/03/13 09:49:32;;;;;;;2.63;1.45;;;13.60;99.90;;;13.12;100.00;96475.47;4915988;29;20565;-74
2023/03/13 09:52:12;;;;;;;1.92;1.42;;;13.80;99.90;;;13.32;100.00;96485.00;4914693;29;20440;-75
2023/03/13 09:54:45;;;;;;;12.43;1.50;;;13.90;99.90;;;13.19;100.00;96483.88;4916032;29;20425;-75
2023/03/13 09:57:19;;;;;;;4.07;1.50;;;14.00;99.90;;;13.41;100.00;96475.28;4913813;29;20431;-75
2023/03/13 09:59:52;;;;;;;7.60;1.83;;;14.10;99.90;;;13.46;100.00;96457.38;4915701;29;20501;-74
2023/03/13 10:02:28;;;;;;;1.92;1.30;;;14.20;99.90;;;13.61;100.00;96461.66;4920689;29;20429;-75
2023/03/13 10:05:03;;;;;;;2.28;1.40;;;14.30;99.90;;;13.73;100.00;96459.31;4932769;28;20441;-77
2023/03/13 10:07:29;;;;;;;4.00;1.60;;;14.50;99.90;;;14.23;100.00;96454.91;4910189;29;20430;-75
2023/03/13 10:09:55;;;;;;;3.60;1.65;;;14.80;99.90;;;14.34;100.00;96453.63;4915662;29;20938;-76
2023/03/13 10:12:27;;;;;;;1.90;1.30;;;15.10;99.90;;;14.72;100.00;96456.06;4913972;29;20488;-76
2023/03/13 10:15:06;;;;;;;2.47;1.10;;;15.50;99.90;;;15.20;100.00;96439.50;4912857;29;20428;-76
2023/03/13 10:17:36;;;;;;;4.47;1.40;;;16.00;99.90;;;15.81;100.00;96446.78;4923076;29;20781;-75